createdAt,value
2019-04-20T00:00:09.914Z,98051.22
2019-04-20T00:01:47.262Z,98055.95
2019-04-20T00:03:29.820Z,98056.25
2019-04-20T00:05:03.444Z,98049.97
2019-04-20T00:06:46.338Z,98051.72
2019-04-20T00:08:21.486Z,98045.23
2019-04-20T00:10:07.597Z,98051.71
2019-04-20T00:11:45.875Z,98044.06
2019-04-20T00:13:22.942Z,98050.60
2019-04-20T00:14:49.951Z,98044.06
2019-04-20T00:16:27.229Z,98039.42
2019-04-20T00:18:06.686Z,98046.98
2019-04-20T00:19:45.635Z,98043.29
2019-04-20T00:21:50.630Z,98045.23
2019-04-20T00:23:56.593Z,98039.23
2019-04-20T00:26:10.458Z,98042.52
2019-04-20T00:28:12.972Z,98046.27
2019-04-20T00:29:53.355Z,98038.55
2019-04-20T00:31:24.839Z,98042.74
2019-04-20T00:32:55.606Z,98040.59
2019-04-20T00:34:30.480Z,98042.34
2019-04-20T00:36:03.161Z,98036.83
2019-04-20T00:37:43.038Z,98036.79
2019-04-20T00:39:21.885Z,98038.34
2019-04-20T00:41:02.787Z,98039.64
2019-04-20T00:42:42.208Z,98037.66
2019-04-20T00:44:17.122Z,98039.54
2019-04-20T00:45:58.548Z,98030.99
2019-04-20T00:47:37.194Z,98030.08
2019-04-20T00:49:22.855Z,98039.20
2019-04-20T00:50:57.506Z,98038.36
2019-04-20T00:52:51.772Z,98033.70
2019-04-20T00:53:58.763Z,98035.34
2019-04-20T00:55:33.794Z,98028.47
2019-04-20T00:57:20.384Z,98036.45
2019-04-20T00:58:56.791Z,98030.01
2019-04-20T01:00:42.517Z,98019.78
2019-04-20T01:02:19.225Z,98031.22
2019-04-20T01:04:02.239Z,98033.30
2019-04-20T01:05:43.281Z,98029.55
2019-04-20T01:07:37.462Z,98029.94
2019-04-20T01:09:14.333Z,98031.61
2019-04-20T01:10:54.172Z,98031.31
2019-04-20T01:12:30.280Z,98033.69
2019-04-20T01:14:07.914Z,98024.22
2019-04-20T01:15:47.161Z,98026.97
2019-04-20T01:17:17.800Z,98027.63
2019-04-20T01:18:54.513Z,98021.48
2019-04-20T01:20:29.956Z,98021.30
2019-04-20T01:22:11.015Z,98034.55
2019-04-20T01:23:50.802Z,98026.30
2019-04-20T01:25:27.054Z,98027.41
2019-04-20T01:27:03.483Z,98027.84
2019-04-20T01:28:51.120Z,98030.16
2019-04-20T01:30:25.304Z,98030.34
2019-04-20T01:32:08.003Z,98030.95
2019-04-20T01:33:44.499Z,98028.97
2019-04-20T01:35:24.778Z,98031.36
2019-04-20T01:37:00.644Z,98024.75
2019-04-20T01:38:40.037Z,98028.88
2019-04-20T01:40:04.423Z,98017.84
2019-04-20T01:41:39.323Z,98028.70
2019-04-20T01:43:18.352Z,98027.35
2019-04-20T01:44:56.675Z,98025.39
2019-04-20T01:46:32.174Z,98031.61
2019-04-20T01:48:08.815Z,98035.23
2019-04-20T01:49:47.772Z,98036.52
2019-04-20T01:51:27.163Z,98025.34
2019-04-20T01:53:12.797Z,98034.06
2019-04-20T01:54:57.989Z,98028.86
2019-04-20T01:56:31.454Z,98033.00
2019-04-20T01:58:17.854Z,98028.86
2019-04-20T01:59:51.762Z,98034.83
2019-04-20T02:01:42.463Z,98033.76
2019-04-20T02:03:46.694Z,98032.86
2019-04-20T02:05:24.945Z,98035.92
2019-04-20T02:06:59.675Z,98032.09
2019-04-20T02:08:34.373Z,98030.45
2019-04-20T02:10:20.028Z,98035.45
2019-04-20T02:12:15.436Z,98030.84
2019-04-20T02:14:04.841Z,98032.13
2019-04-20T02:15:48.532Z,98030.70
2019-04-20T02:17:31.230Z,98032.70
2019-04-20T02:19:13.771Z,98033.39
2019-04-20T02:20:54.517Z,98030.98
2019-04-20T02:22:30.595Z,98033.33
2019-04-20T02:23:57.273Z,98032.64
2019-04-20T02:25:29.053Z,98029.70
2019-04-20T02:27:06.184Z,98031.50
2019-04-20T02:29:06.053Z,98029.13
2019-04-20T02:32:23.347Z,98032.36
2019-04-20T02:36:21.135Z,98030.56
2019-04-20T02:39:48.486Z,98024.72
2019-04-20T02:41:17.457Z,98030.56
2019-04-20T02:42:59.876Z,98023.34
2019-04-20T02:46:07.889Z,98026.44
2019-04-20T02:47:45.608Z,98025.50
2019-04-20T02:50:59.008Z,98023.27
2019-04-20T02:52:49.248Z,98023.69
2019-04-20T02:57:51.095Z,98024.89
2019-04-20T02:59:25.082Z,98023.34
2019-04-20T03:00:35.564Z,98023.03
2019-04-20T03:02:06.059Z,98018.39
2019-04-20T03:03:32.803Z,98022.94
2019-04-20T03:05:12.422Z,98018.13
2019-04-20T03:06:55.011Z,98022.02
2019-04-20T03:08:33.053Z,98018.21
2019-04-20T03:10:15.592Z,98013.09
2019-04-20T03:12:02.193Z,98014.80
2019-04-20T03:13:28.297Z,98020.39
2019-04-20T03:14:55.282Z,98017.03
2019-04-20T03:16:35.776Z,98018.67
2019-04-20T03:18:13.837Z,98022.17
2019-04-20T03:19:51.294Z,98022.11
2019-04-20T03:21:32.812Z,98024.94
2019-04-20T03:24:50.111Z,98022.31
2019-04-20T03:26:21.173Z,98017.08
2019-04-20T03:28:05.142Z,98018.10
2019-04-20T03:29:56.772Z,98020.31
2019-04-20T03:36:34.328Z,98022.89
2019-04-20T03:38:09.247Z,98021.16
2019-04-20T03:39:38.868Z,98025.32
2019-04-20T03:41:11.108Z,98025.55
2019-04-20T03:42:37.144Z,98023.08
2019-04-20T03:44:17.895Z,98023.73
2019-04-20T03:45:56.164Z,98028.91
2019-04-20T03:47:35.882Z,98028.48
2019-04-20T03:49:20.255Z,98029.41
2019-04-20T03:50:56.708Z,98032.61
2019-04-20T03:52:51.397Z,98026.86
2019-04-20T03:54:39.441Z,98030.88
2019-04-20T03:56:35.126Z,98027.64
2019-04-20T03:58:24.424Z,98027.52
2019-04-20T04:00:22.113Z,98033.92
2019-04-20T04:02:21.823Z,98032.05
2019-04-20T04:04:01.450Z,98026.12
2019-04-20T04:05:50.925Z,98030.80
2019-04-20T04:07:22.807Z,98028.89
2019-04-20T04:09:07.385Z,98033.45
2019-04-20T04:10:56.103Z,98034.75
2019-04-20T04:12:49.843Z,98033.55
2019-04-20T04:14:25.981Z,98032.27
2019-04-20T04:16:08.820Z,98038.02
2019-04-20T04:17:44.740Z,98036.88
2019-04-20T04:19:25.223Z,98035.81
2019-04-20T04:21:02.507Z,98040.17
2019-04-20T04:22:51.502Z,98039.62
2019-04-20T04:24:26.085Z,98041.86
2019-04-20T04:26:10.122Z,98043.64
2019-04-20T04:27:40.663Z,98039.53
2019-04-20T04:29:28.831Z,98046.62
2019-04-20T04:31:05.095Z,98049.49
2019-04-20T04:33:08.611Z,98043.20
2019-04-20T04:34:20.577Z,98044.66
2019-04-20T04:35:53.804Z,98047.05
2019-04-20T04:37:33.824Z,98041.85
2019-04-20T04:39:15.060Z,98049.09
2019-04-20T04:41:04.969Z,98045.55
2019-04-20T04:42:28.167Z,98045.74
2019-04-20T04:44:03.093Z,98043.23
2019-04-20T04:45:26.563Z,98049.00
2019-04-20T04:47:04.372Z,98049.37
2019-04-20T04:48:41.098Z,98054.34
2019-04-20T04:50:18.298Z,98057.04
2019-04-20T04:52:00.214Z,98054.83
2019-04-20T04:53:40.849Z,98051.06
2019-04-20T04:55:18.849Z,98052.43
2019-04-20T04:56:40.483Z,98059.45
2019-04-20T04:58:17.328Z,98057.53
2019-04-20T04:59:53.109Z,98056.60
2019-04-20T05:01:30.921Z,98060.40
2019-04-20T05:03:30.531Z,98063.20
2019-04-20T05:05:17.752Z,98064.08
2019-04-20T05:06:48.553Z,98054.11
2019-04-20T05:08:21.937Z,98061.12
2019-04-20T05:09:50.690Z,98064.94
2019-04-20T05:11:27.957Z,98065.09
2019-04-20T05:13:04.989Z,98062.55
2019-04-20T05:14:52.107Z,98061.44
2019-04-20T05:16:38.489Z,98066.58
2019-04-20T05:18:16.213Z,98065.43
2019-04-20T05:19:52.982Z,98066.61
2019-04-20T05:21:39.518Z,98070.07
2019-04-20T05:23:28.015Z,98067.91
2019-04-20T05:25:31.147Z,98061.83
2019-04-20T05:27:32.041Z,98063.09
2019-04-20T05:29:02.585Z,98059.67
2019-04-20T05:30:34.457Z,98056.16
2019-04-20T05:32:14.789Z,98058.10
2019-04-20T05:34:17.061Z,98060.74
2019-04-20T05:35:43.434Z,98059.17
2019-04-20T05:37:29.727Z,98056.64
2019-04-20T05:39:13.156Z,98052.64
2019-04-20T05:40:46.151Z,98048.08
2019-04-20T05:42:32.778Z,98049.62
2019-04-20T05:44:22.879Z,98044.58
2019-04-20T05:45:58.345Z,98048.28
2019-04-20T05:47:46.751Z,98043.22
2019-04-20T05:49:26.975Z,98042.14
2019-04-20T05:51:01.992Z,98038.02
2019-04-20T05:52:50.233Z,98036.23
2019-04-20T05:54:26.202Z,98036.34
2019-04-20T05:55:54.221Z,98036.07
2019-04-20T05:57:36.272Z,98041.48
2019-04-20T05:59:12.720Z,98033.99
2019-04-20T06:00:55.465Z,98033.66
2019-04-20T06:02:34.813Z,98044.18
2019-04-20T06:04:02.574Z,98037.84
2019-04-20T06:05:55.157Z,98040.67
2019-04-20T06:07:26.840Z,98038.32
2019-04-20T06:09:03.885Z,98039.06
2019-04-20T06:10:38.341Z,98040.79
2019-04-20T06:14:05.392Z,98037.02
2019-04-20T06:16:05.634Z,98042.27
2019-04-20T06:17:59.634Z,98043.70
2019-04-20T06:19:42.208Z,98041.89
2019-04-20T06:21:57.688Z,98041.16
2019-04-20T06:25:53.119Z,98039.79
2019-04-20T06:27:22.463Z,98042.67
2019-04-20T06:28:58.234Z,98037.14
2019-04-20T06:30:41.190Z,98047.27
2019-04-20T06:32:33.368Z,98045.13
2019-04-20T06:37:39.168Z,98047.98
2019-04-20T06:39:22.537Z,98050.26
2019-04-20T06:41:05.313Z,98048.70
2019-04-20T06:42:39.678Z,98045.81
2019-04-20T06:46:09.800Z,98049.20
2019-04-20T06:47:55.608Z,98044.80
2019-04-20T06:49:28.936Z,98047.73
2019-04-20T06:50:57.064Z,98052.64
2019-04-20T06:53:01.927Z,98052.36
2019-04-20T06:54:57.723Z,98049.38
2019-04-20T06:56:42.631Z,98054.33
2019-04-20T06:58:47.914Z,98056.28
2019-04-20T07:00:36.902Z,98053.39
2019-04-20T07:02:02.976Z,98054.72
2019-04-20T07:04:12.680Z,98059.32
2019-04-20T07:05:26.973Z,98056.02
2019-04-20T07:07:14.342Z,98062.95
2019-04-20T07:08:58.626Z,98059.03
2019-04-20T07:10:25.197Z,98059.38
2019-04-20T07:12:03.723Z,98061.45
2019-04-20T07:13:35.942Z,98061.83
2019-04-20T07:15:30.262Z,98061.22
2019-04-20T07:17:40.761Z,98059.20
2019-04-20T07:19:16.809Z,98059.37
2019-04-20T07:21:03.043Z,98061.79
2019-04-20T07:22:49.273Z,98054.80
2019-04-20T07:24:42.875Z,98056.30
2019-04-20T07:26:16.992Z,98056.56
2019-04-20T07:27:52.187Z,98060.77
2019-04-20T07:29:25.918Z,98055.48
2019-04-20T07:31:01.844Z,98067.30
2019-04-20T07:32:44.088Z,98062.78
2019-04-20T07:34:15.647Z,98068.30
2019-04-20T07:35:52.373Z,98063.02
2019-04-20T07:38:10.409Z,98069.14
2019-04-20T07:39:29.037Z,98066.67
2019-04-20T07:41:15.074Z,98053.63
2019-04-20T07:42:46.746Z,98066.34
2019-04-20T07:44:31.000Z,98059.81
2019-04-20T07:46:12.017Z,98058.91
2019-04-20T07:47:47.301Z,98059.76
2019-04-20T07:49:27.195Z,98061.06
2019-04-20T07:50:58.224Z,98056.05
2019-04-20T07:52:33.992Z,98056.95
2019-04-20T07:54:28.497Z,98062.07
2019-04-20T07:55:58.134Z,98052.81
2019-04-20T07:57:32.925Z,98052.92
2019-04-20T07:58:57.038Z,98053.90
2019-04-20T08:02:48.891Z,98051.06
2019-04-20T08:04:22.629Z,98050.17
2019-04-20T08:06:05.116Z,98048.34
2019-04-20T08:07:45.148Z,98048.52
2019-04-20T08:09:25.719Z,98051.02
2019-04-20T08:11:12.284Z,98055.03
2019-04-20T08:13:02.971Z,98056.95
2019-04-20T08:14:42.395Z,98050.11
2019-04-20T08:16:33.664Z,98055.06
2019-04-20T08:17:56.789Z,98051.61
2019-04-20T08:19:33.506Z,98048.50
2019-04-20T08:21:19.874Z,98046.55
2019-04-20T08:22:51.681Z,98053.53
2019-04-20T08:24:28.810Z,98049.37
2019-04-20T08:26:01.487Z,98052.17
2019-04-20T08:27:44.751Z,98054.78
2019-04-20T08:29:37.970Z,98055.30
2019-04-20T08:31:41.679Z,98051.47
2019-04-20T08:33:24.450Z,98049.61
2019-04-20T08:35:05.226Z,98048.03
2019-04-20T08:36:46.074Z,98049.63
2019-04-20T08:38:56.252Z,98039.28
2019-04-20T08:40:07.179Z,98042.20
2019-04-20T08:41:31.604Z,98045.53
2019-04-20T08:43:34.914Z,98047.58
2019-04-20T08:45:03.855Z,98047.02
2019-04-20T08:46:32.128Z,98045.75
2019-04-20T08:48:19.187Z,98044.63
2019-04-20T08:50:20.842Z,98047.70
2019-04-20T08:52:01.849Z,98037.89
2019-04-20T08:53:33.071Z,98043.97
2019-04-20T08:55:04.737Z,98046.17
2019-04-20T08:56:34.914Z,98047.67
2019-04-20T08:58:00.953Z,98043.36
2019-04-20T08:59:40.139Z,98043.80
2019-04-20T09:01:21.631Z,98043.44
2019-04-20T09:03:02.312Z,98042.61
2019-04-20T09:04:45.014Z,98044.01
2019-04-20T09:06:29.398Z,98038.66
2019-04-20T09:08:02.427Z,98048.84
2019-04-20T09:09:49.638Z,98042.37
2019-04-20T09:11:23.238Z,98042.08
2019-04-20T09:13:01.473Z,98048.16
2019-04-20T09:14:22.071Z,98039.52
2019-04-20T09:15:57.949Z,98042.48
2019-04-20T09:17:47.488Z,98041.30
2019-04-20T09:19:32.468Z,98041.80
2019-04-20T09:21:06.775Z,98041.25
2019-04-20T09:22:50.694Z,98040.39
2019-04-20T09:24:36.902Z,98042.60
2019-04-20T09:26:11.333Z,98040.57
2019-04-20T09:27:48.781Z,98040.83
2019-04-20T09:29:30.582Z,98038.03
2019-04-20T09:31:18.177Z,98038.84
2019-04-20T09:33:06.641Z,98039.21
2019-04-20T09:34:46.712Z,98039.11
2019-04-20T09:36:17.916Z,98043.20
2019-04-20T09:38:07.295Z,98039.70
2019-04-20T09:40:10.891Z,98042.14
2019-04-20T09:41:59.731Z,98041.68
2019-04-20T09:43:47.462Z,98037.70
2019-04-20T09:45:37.366Z,98030.14
2019-04-20T09:47:08.613Z,98032.53
2019-04-20T09:48:53.601Z,98026.83
2019-04-20T09:50:37.561Z,98026.75
2019-04-20T09:52:11.267Z,98033.27
2019-04-20T09:53:47.439Z,98026.97
2019-04-20T09:55:24.651Z,98022.02
2019-04-20T09:57:08.945Z,98030.17
2019-04-20T09:58:47.203Z,98034.98
2019-04-20T10:00:25.473Z,98036.89
2019-04-20T10:01:50.829Z,98033.70
2019-04-20T10:03:22.705Z,98025.21
2019-04-20T10:04:59.757Z,98030.56
2019-04-20T10:06:36.118Z,98027.02
2019-04-20T10:08:13.538Z,98030.89
2019-04-20T10:09:50.619Z,98032.13
2019-04-20T10:11:29.908Z,98031.47
2019-04-20T10:13:11.324Z,98019.80
2019-04-20T10:14:46.984Z,98019.84
2019-04-20T10:16:26.028Z,98018.64
2019-04-20T10:18:07.889Z,98018.06
2019-04-20T10:19:46.433Z,98023.63
2019-04-20T10:21:23.604Z,98014.06
2019-04-20T10:22:58.849Z,98018.34
2019-04-20T10:24:34.750Z,98017.64
2019-04-20T10:26:12.550Z,98011.46
2019-04-20T10:27:49.475Z,98006.76
2019-04-20T10:29:25.812Z,98011.36
2019-04-20T10:31:02.277Z,98004.91
2019-04-20T10:32:43.034Z,98010.75
2019-04-20T10:34:15.814Z,98010.49
2019-04-20T10:35:54.525Z,98014.73
2019-04-20T10:37:33.647Z,98018.25
2019-04-20T10:39:10.943Z,98011.34
2019-04-20T10:40:59.734Z,98018.56
2019-04-20T10:42:26.031Z,98011.98
2019-04-20T10:44:07.125Z,98022.66
2019-04-20T10:45:46.958Z,98016.77
2019-04-20T10:47:27.307Z,98017.78
2019-04-20T10:49:08.293Z,98011.36
2019-04-20T10:50:45.099Z,98009.17
2019-04-20T10:52:23.632Z,98004.00
2019-04-20T10:54:18.667Z,98008.61
2019-04-20T10:55:54.080Z,98012.77
2019-04-20T10:57:31.631Z,98010.13
2019-04-20T10:59:07.745Z,98015.41
2019-04-20T11:00:49.881Z,98009.23
2019-04-20T11:02:29.851Z,98011.80
2019-04-20T11:04:08.501Z,98001.47
2019-04-20T11:05:46.648Z,98001.91
2019-04-20T11:07:24.662Z,98001.06
2019-04-20T11:09:02.495Z,98002.06
2019-04-20T11:10:55.554Z,98001.58
2019-04-20T11:12:17.871Z,98000.39
2019-04-20T11:13:53.340Z,97994.64
2019-04-20T11:15:36.922Z,97994.39
2019-04-20T11:17:14.073Z,97992.05
2019-04-20T11:18:49.446Z,97989.90
2019-04-20T11:20:33.204Z,97989.37
2019-04-20T11:22:10.388Z,97984.62
2019-04-20T11:23:46.602Z,97989.17
2019-04-20T11:25:24.328Z,97981.41
2019-04-20T11:27:05.277Z,97982.33
2019-04-20T11:28:48.366Z,97985.91
2019-04-20T11:30:26.213Z,97988.42
2019-04-20T11:32:03.115Z,97986.39
2019-04-20T11:33:42.536Z,97977.71
2019-04-20T11:35:27.843Z,97973.84
2019-04-20T11:37:03.466Z,97968.45
2019-04-20T11:38:39.148Z,97971.38
2019-04-20T11:40:17.534Z,97960.45
2019-04-20T11:41:56.453Z,97962.76
2019-04-20T11:43:33.531Z,97956.21
2019-04-20T11:45:18.354Z,97954.92
2019-04-20T11:46:56.670Z,97949.47
2019-04-20T11:48:33.725Z,97955.76
2019-04-20T11:50:11.416Z,97950.13
2019-04-20T11:51:47.983Z,97949.06
2019-04-20T11:53:26.564Z,97952.83
2019-04-20T11:55:02.434Z,97946.33
2019-04-20T11:56:41.368Z,97950.23
2019-04-20T11:58:19.711Z,97942.65
2019-04-20T11:59:59.117Z,97944.13
2019-04-20T12:02:05.501Z,97941.03
2019-04-20T12:03:52.954Z,97943.81
2019-04-20T12:05:27.827Z,97943.91
2019-04-20T12:07:01.528Z,97946.16
2019-04-20T12:08:40.656Z,97945.52
2019-04-20T12:10:27.906Z,97939.25
2019-04-20T12:12:14.209Z,97934.83
2019-04-20T12:13:42.637Z,97927.80
2019-04-20T12:15:20.721Z,97935.83
2019-04-20T12:16:57.570Z,97924.12
2019-04-20T12:18:33.723Z,97930.28
2019-04-20T12:20:10.093Z,97929.09
2019-04-20T12:21:49.545Z,97921.45
2019-04-20T12:23:24.727Z,97920.08
2019-04-20T12:25:00.616Z,97919.09
2019-04-20T12:26:36.518Z,97910.49
2019-04-20T12:28:13.692Z,97913.42
2019-04-20T12:29:50.181Z,97917.06
2019-04-20T12:31:27.566Z,97917.25
2019-04-20T12:33:05.635Z,97912.86
2019-04-20T12:34:43.342Z,97913.59
2019-04-20T12:36:22.318Z,97905.69
2019-04-20T12:38:00.957Z,97916.36
2019-04-20T12:39:35.823Z,97913.98
2019-04-20T12:41:16.163Z,97917.48
2019-04-20T12:42:51.321Z,97915.16
2019-04-20T12:44:30.003Z,97912.34
2019-04-20T12:46:07.688Z,97917.95
2019-04-20T12:47:46.555Z,97911.84
2019-04-20T12:49:23.433Z,97911.95
2019-04-20T12:51:01.524Z,97917.47
2019-04-20T12:52:44.136Z,97917.45
2019-04-20T12:54:20.762Z,97907.92
2019-04-20T12:56:02.280Z,97912.23
2019-04-20T12:57:42.804Z,97906.90
2019-04-20T12:59:23.473Z,97900.98
2019-04-20T13:01:04.511Z,97898.70
2019-04-20T13:02:45.359Z,97896.17
2019-04-20T13:04:22.656Z,97889.14
2019-04-20T13:06:01.819Z,97896.70
2019-04-20T13:07:42.132Z,97891.94
2019-04-20T13:09:18.664Z,97891.59
2019-04-20T13:11:04.600Z,97884.58
2019-04-20T13:12:52.264Z,97889.08
2019-04-20T13:14:55.903Z,97883.27
2019-04-20T13:16:34.918Z,97880.09
2019-04-20T13:18:21.240Z,97882.94
2019-04-20T13:19:57.452Z,97878.38
2019-04-20T13:21:42.989Z,97877.66
2019-04-20T13:23:20.841Z,97870.09
2019-04-20T13:25:01.184Z,97874.70
2019-04-20T13:26:58.694Z,97876.59
2019-04-20T13:28:41.240Z,97863.33
2019-04-20T13:30:32.138Z,97865.00
2019-04-20T13:32:11.761Z,97860.08
2019-04-20T13:33:47.491Z,97856.39
2019-04-20T13:35:28.199Z,97860.15
2019-04-20T13:37:06.523Z,97852.02
2019-04-20T13:38:41.812Z,97852.59
2019-04-20T13:40:21.847Z,97847.40
2019-04-20T13:42:08.695Z,97849.69
2019-04-20T13:43:37.657Z,97853.39
2019-04-20T13:45:19.214Z,97852.97
2019-04-20T13:46:54.798Z,97849.13
2019-04-20T13:48:33.420Z,97848.85
2019-04-20T13:50:13.127Z,97842.14
2019-04-20T13:51:52.960Z,97844.63
2019-04-20T13:53:29.884Z,97836.28
2019-04-20T13:55:11.226Z,97831.01
2019-04-20T13:56:51.078Z,97832.05
2019-04-20T13:58:59.240Z,97827.10
2019-04-20T14:01:08.493Z,97832.47
2019-04-20T14:02:54.108Z,97822.40
2019-04-20T14:04:39.015Z,97824.39
2019-04-20T14:06:14.410Z,97822.58
2019-04-20T14:07:53.514Z,97822.89
2019-04-20T14:09:32.859Z,97816.84
2019-04-20T14:11:15.621Z,97822.02
2019-04-20T14:13:00.852Z,97823.74
2019-04-20T14:14:31.026Z,97823.94
2019-04-20T14:16:14.443Z,97820.81
2019-04-20T14:17:51.030Z,97808.64
2019-04-20T14:19:27.265Z,97818.81
2019-04-20T14:21:02.568Z,97811.99
2019-04-20T14:22:41.122Z,97806.33
2019-04-20T14:24:17.078Z,97802.36
2019-04-20T14:25:54.563Z,97806.73
2019-04-20T14:27:33.390Z,97806.19
2019-04-20T14:29:12.740Z,97807.66
2019-04-20T14:30:51.953Z,97799.58
2019-04-20T14:32:27.202Z,97806.20
2019-04-20T14:34:02.697Z,97794.73
2019-04-20T14:35:38.803Z,97790.14
2019-04-20T14:37:17.864Z,97792.40
2019-04-20T14:38:56.047Z,97789.66
2019-04-20T14:40:34.507Z,97793.83
2019-04-20T14:42:27.921Z,97786.64
2019-04-20T14:44:05.893Z,97793.88
2019-04-20T14:45:40.974Z,97788.50
2019-04-20T14:47:16.145Z,97783.25
2019-04-20T14:48:54.498Z,97788.89
2019-04-20T14:50:31.926Z,97787.84
2019-04-20T14:52:13.452Z,97783.58
2019-04-20T14:53:51.504Z,97780.50
2019-04-20T14:55:27.694Z,97775.58
2019-04-20T14:57:03.432Z,97774.70
2019-04-20T14:59:01.887Z,97774.53
2019-04-20T15:01:00.544Z,97777.13
2019-04-20T15:02:36.318Z,97775.47
2019-04-20T15:04:18.607Z,97776.58
2019-04-20T15:05:53.355Z,97775.63
2019-04-20T15:07:32.785Z,97776.58
2019-04-20T15:09:10.754Z,97780.60
2019-04-20T15:10:46.981Z,97770.05
2019-04-20T15:12:35.083Z,97761.55
2019-04-20T15:14:02.436Z,97764.33
2019-04-20T15:15:38.743Z,97764.09
2019-04-20T15:17:19.449Z,97769.22
2019-04-20T15:19:13.706Z,97766.88
2019-04-20T15:20:55.526Z,97759.09
2019-04-20T15:22:47.864Z,97771.69
2019-04-20T15:24:27.384Z,97759.75
2019-04-20T15:26:06.593Z,97768.28
2019-04-20T15:27:44.727Z,97776.48
2019-04-20T15:29:20.042Z,97776.67
2019-04-20T15:31:00.386Z,97773.55
2019-04-20T15:32:36.845Z,97768.73
2019-04-20T15:34:17.083Z,97776.58
2019-04-20T15:35:55.810Z,97773.16
2019-04-20T15:37:31.518Z,97766.34
2019-04-20T15:39:09.275Z,97772.55
2019-04-20T15:40:44.868Z,97767.70
2019-04-20T15:42:25.312Z,97769.50
2019-04-20T15:43:59.861Z,97768.08
2019-04-20T15:45:37.511Z,97767.58
2019-04-20T15:47:22.350Z,97767.72
2019-04-20T15:48:57.987Z,97758.85
2019-04-20T15:50:41.365Z,97758.19
2019-04-20T15:52:25.510Z,97762.63
2019-04-20T15:53:55.636Z,97764.26
2019-04-20T15:55:37.397Z,97760.08
2019-04-20T15:57:14.577Z,97758.89
2019-04-20T15:58:46.317Z,97759.22
2019-04-20T16:00:22.580Z,97758.25
2019-04-20T16:02:09.362Z,97753.33
2019-04-20T16:03:59.338Z,97758.56
2019-04-20T16:05:47.165Z,97756.14
2019-04-20T16:07:25.560Z,97758.83
2019-04-20T16:09:06.176Z,97756.27
2019-04-20T16:10:41.237Z,97752.45
2019-04-20T16:12:20.830Z,97753.33
2019-04-20T16:13:58.192Z,97761.59
2019-04-20T16:15:33.939Z,97756.38
2019-04-20T16:17:12.293Z,97752.45
2019-04-20T16:18:48.598Z,97751.56
2019-04-20T16:20:26.816Z,97752.56
2019-04-20T16:22:07.906Z,97747.74
2019-04-20T16:23:46.348Z,97747.74
2019-04-20T16:25:32.143Z,97758.66
2019-04-20T16:27:17.915Z,97752.16
2019-04-20T16:28:53.571Z,97746.45
2019-04-20T16:30:29.751Z,97752.31
2019-04-20T16:32:06.706Z,97757.30
2019-04-20T16:33:46.347Z,97758.45
2019-04-20T16:35:24.598Z,97746.19
2019-04-20T16:37:02.202Z,97749.48
2019-04-20T16:38:43.491Z,97748.44
2019-04-20T16:40:19.920Z,97751.03
2019-04-20T16:41:58.269Z,97744.97
2019-04-20T16:43:40.307Z,97742.68
2019-04-20T16:45:12.190Z,97744.19
2019-04-20T16:46:52.154Z,97739.83
2019-04-20T16:48:28.284Z,97737.18
2019-04-20T16:50:04.714Z,97740.03
2019-04-20T16:51:43.042Z,97738.91
2019-04-20T16:53:20.315Z,97734.69
2019-04-20T16:54:57.990Z,97732.17
2019-04-20T16:56:33.302Z,97728.47
2019-04-20T16:58:08.509Z,97731.61
2019-04-20T16:59:50.258Z,97732.32
2019-04-20T17:01:27.520Z,97729.10
2019-04-20T17:03:02.859Z,97736.00
2019-04-20T17:04:42.824Z,97736.77
2019-04-20T17:06:18.331Z,97733.33
2019-04-20T17:07:55.264Z,97736.11
2019-04-20T17:09:32.111Z,97737.36
2019-04-20T17:11:08.162Z,97730.77
2019-04-20T17:12:48.077Z,97733.86
2019-04-20T17:14:23.937Z,97731.71
2019-04-20T17:15:59.674Z,97721.81
2019-04-20T17:17:40.476Z,97724.59
2019-04-20T17:19:15.631Z,97720.58
2019-04-20T17:20:56.544Z,97725.78
2019-04-20T17:22:33.137Z,97722.69
2019-04-20T17:24:09.297Z,97733.36
2019-04-20T17:25:47.990Z,97729.95
2019-04-20T17:27:49.129Z,97730.34
2019-04-20T17:29:28.270Z,97734.38
2019-04-20T17:31:29.277Z,97730.45
2019-04-20T17:33:08.543Z,97726.55
2019-04-20T17:35:00.032Z,97735.11
2019-04-20T17:36:27.750Z,97735.90
2019-04-20T17:38:02.688Z,97731.94
2019-04-20T17:40:04.156Z,97729.72
2019-04-20T17:41:42.941Z,97736.06
2019-04-20T17:43:10.582Z,97736.64
2019-04-20T17:44:49.262Z,97733.86
2019-04-20T17:46:40.539Z,97738.30
2019-04-20T17:48:23.076Z,97734.76
2019-04-20T17:50:17.411Z,97740.47
2019-04-20T17:51:58.151Z,97738.37
2019-04-20T17:53:41.720Z,97744.62
2019-04-20T17:55:26.483Z,97741.42
2019-04-20T17:56:54.383Z,97741.95
2019-04-20T17:58:35.030Z,97735.02
2019-04-20T18:00:20.702Z,97740.42
2019-04-20T18:02:25.486Z,97739.08
2019-04-20T18:04:31.074Z,97738.10
2019-04-20T18:06:03.252Z,97736.55
2019-04-20T18:07:41.097Z,97741.38
2019-04-20T18:09:17.913Z,97742.27
2019-04-20T18:10:50.644Z,97737.20
2019-04-20T18:12:26.056Z,97728.67
2019-04-20T18:14:03.392Z,97739.18
2019-04-20T18:15:48.777Z,97745.27
2019-04-20T18:17:55.066Z,97745.02
2019-04-20T18:19:29.998Z,97744.03
2019-04-20T18:21:35.873Z,97743.69
2019-04-20T18:23:12.792Z,97744.78
2019-04-20T18:25:16.352Z,97747.83
2019-04-20T18:26:47.903Z,97738.28
2019-04-20T18:28:20.942Z,97735.78
2019-04-20T18:30:04.049Z,97740.00
2019-04-20T18:31:39.621Z,97741.77
2019-04-20T18:33:18.894Z,97736.54
2019-04-20T18:35:08.419Z,97740.75
2019-04-20T18:36:49.166Z,97738.63
2019-04-20T18:38:30.510Z,97743.94
2019-04-20T18:40:14.373Z,97744.56
2019-04-20T18:42:03.114Z,97741.39
2019-04-20T18:43:43.881Z,97744.80
2019-04-20T18:45:58.311Z,97746.70
2019-04-20T18:47:43.975Z,97748.86
2019-04-20T18:49:23.863Z,97744.31
2019-04-20T18:50:50.752Z,97748.78
2019-04-20T18:52:27.661Z,97747.70
2019-04-20T18:54:11.457Z,97748.39
2019-04-20T18:55:55.118Z,97744.86
2019-04-20T18:57:32.728Z,97748.56
2019-04-20T18:59:19.026Z,97744.60
2019-04-20T19:00:55.371Z,97744.01
2019-04-20T19:02:38.316Z,97751.22
2019-04-20T19:04:10.154Z,97748.16
2019-04-20T19:05:45.886Z,97743.70
2019-04-20T19:07:21.797Z,97745.13
2019-04-20T19:08:57.226Z,97744.36
2019-04-20T19:10:36.847Z,97750.66
2019-04-20T19:12:14.624Z,97737.75
2019-04-20T19:14:12.301Z,97745.28
2019-04-20T19:16:07.901Z,97740.80
2019-04-20T19:18:08.179Z,97742.38
2019-04-20T19:19:50.943Z,97745.91
2019-04-20T19:21:27.040Z,97746.23
2019-04-20T19:23:02.193Z,97752.83
2019-04-20T19:24:43.656Z,97754.72
2019-04-20T19:26:28.531Z,97756.40
2019-04-20T19:28:05.527Z,97756.56
2019-04-20T19:29:55.377Z,97756.86
2019-04-20T19:31:41.360Z,97755.20
2019-04-20T19:33:18.998Z,97755.36
2019-04-20T19:34:54.925Z,97757.66
2019-04-20T19:36:31.890Z,97757.84
2019-04-20T19:38:09.352Z,97761.20
2019-04-20T19:39:53.222Z,97761.68
2019-04-20T19:41:32.001Z,97756.77
2019-04-20T19:43:13.716Z,97767.20
2019-04-20T19:44:56.588Z,97767.97
2019-04-20T19:48:17.742Z,97768.00
2019-04-20T19:49:56.497Z,97760.48
2019-04-20T19:51:46.813Z,97764.47
2019-04-20T19:53:26.502Z,97758.17
2019-04-20T19:55:02.436Z,97759.40
2019-04-20T19:56:38.764Z,97757.25
2019-04-20T19:58:10.350Z,97763.41
2019-04-20T19:59:39.935Z,97766.48
2019-04-20T20:01:11.566Z,97763.86
2019-04-20T20:03:10.052Z,97753.58
2019-04-20T20:05:06.814Z,97763.70
2019-04-20T20:06:47.168Z,97765.72
2019-04-20T20:08:24.474Z,97763.72
2019-04-20T20:10:04.246Z,97766.02